Airfield :
LOGIN :

Register | Disclaimer

   EN    FR    IT 

 










Legend :    VFR   Marginal VFR   IFR   Intensive IFR   Very Intensive IFR
Visi :
Ceiling :
>= 8 km
>= 3000ft
5 to 8 km
1000 to 3000 ft
1500m to 5 km
500 to 1000 ft
800 to 1500m
200 to 500 ft
< 800m
< 200 ft
Symbols :   Thunderstorms  Fog  Heavy snow  Heavy precipitations  Wind > 20 kt
SIGMETs :     Misc.  Thunderstorms  Icing  Turbulence  Mountain Waves  Volcanic Ashes






- Airport Elevation : 645 ft
- IATA code : DLE


LFGJ - Dole Tavaux

CURRENT METAR :
  • 211800Z AUTO 18010KT CAVOK 13/07 Q1016

EXPIRED METARs :
  • 211730Z AUTO 18006KT CAVOK 11/08 Q1016
  • 211700Z AUTO 20006KT CAVOK 11/08 Q1015 NOSIG
  • 211630Z AUTO 21009KT CAVOK 13/08 Q1015 NOSIG
  • 211600Z AUTO 21011KT CAVOK 15/08 Q1015 NOSIG
  • 211530Z AUTO 22014KT 9999 NCD 16/08 Q1015 NOSIG

TAF AMD TAF LFGJ
Valid from the 21 at 15:00 until the 22 at 00:00 UTC


211424Z 2115/2124 22012KT CAVOK
TEMPO 2120/2124 4000 SHRA FEW025CB BKN050



MET'MAP, your aeronautical weather chart ! - Copyright ORBIFLY December 2007 - Disclaimer

ORBIFLY MET'MAP TEAM :

Programming & Development : Alexandra Zaïnal
Concept & original design : Baudouin d'Aumeries
Assistance for programming : Marc-Olivier Méhu
Technical & hardware support : Manuel Goepfert

Contact : metmap@orbifly.com




SOURCES & CREDITS :

   NOAA